CheckWX is a tool to help pilots better visualize weather data.  It is not intended as a substitute for an official pre-flight weather briefing.

06:46:48 UTC

UUMO TAF
Ostafyevo International Airport
Moscow, Russian Federation
TAF UUMO 170452Z 1706/1715 24003MPS CAVOK BECMG 1707/1709 28005G10MPS

Jun-17@
06:00 UTC

Jun-17 @ 06:00 UTC

Jun-17@
07:00 UTC

Jun-17 @ 07:00 UTC

TAF UUMO 170452Z 1706/1715 24003MPS CAVOK
Wind
  • 240° at 6 KTS
Conditions
No significant weather
Cloud Levels
  • No significant clouds

Jun-17@
07:00 UTC

Jun-17 @ 07:00 UTC

Jun-17@
15:00 UTC

Jun-17 @ 15:00 UTC

BECMG 1707/1709 28005G10MPS

Becoming

Becoming Conditions expected by Mon, Jun 17, 2019 @ 09:00 UTC

Wind
  • 280° at 10 KTS
  • {Gusting to 19 KTS
Conditions
No significant weather
Cloud Levels
  • No significant clouds